Terminal Aerodrome Forecast
Issued by NWS Charleston, WV

Current Version | Previous Version | Graphics & Text | Print | Product List | Glossary On
Versions: 1 2 3 4 5 6 7 8 9 10 11 12 13 14 15 16 17 18 19 20 21
074
FTUS41 KRLX 250236 AAA
TAFPKB
TAF AMD
KPKB 250236Z 2503/2524 00000KT P6SM SKC
     FM251230 VRB02KT P6SM SCT250
     FM251600 22004KT P6SM SCT050
     FM252000 23006KT P6SM BKN050=

USA.gov is the U.S. government's official web portal to all federal, state and local government web resources and services.